createdAt,value
2022-11-14T00:00:43.920Z,55.82
2022-11-14T00:01:38.050Z,55.72
2022-11-14T00:02:31.637Z,56.22
2022-11-14T00:03:25.131Z,56.24
2022-11-14T00:04:18.660Z,56.72
2022-11-14T00:05:02.323Z,56.12
2022-11-14T00:05:45.989Z,56.12
2022-11-14T00:06:39.575Z,56.45
2022-11-14T00:07:33.169Z,56.52
2022-11-14T00:08:26.787Z,56.45
2022-11-14T00:09:20.128Z,55.82
2022-11-14T00:10:13.673Z,56.42
2022-11-14T00:11:07.213Z,56.15
2022-11-14T00:11:50.867Z,55.82
2022-11-14T00:12:44.398Z,56.22
2022-11-14T00:13:37.925Z,56.62
2022-11-14T00:14:31.472Z,56.42
2022-11-14T00:15:24.994Z,56.15
2022-11-14T00:16:18.523Z,55.85
2022-11-14T00:17:12.063Z,55.85
2022-11-14T00:18:05.588Z,55.85
2022-11-14T00:18:59.117Z,55.85
2022-11-14T00:19:52.659Z,56.24
2022-11-14T00:20:46.187Z,55.74
2022-11-14T00:21:40.220Z,55.92
2022-11-14T00:22:33.755Z,56.02
2022-11-14T00:23:27.408Z,56.22
2022-11-14T00:24:20.827Z,56.02
2022-11-14T00:25:14.368Z,56.05
2022-11-14T00:26:07.898Z,56.05
2022-11-14T00:27:01.432Z,56.05
2022-11-14T00:27:54.981Z,56.72
2022-11-14T00:28:48.513Z,56.74
2022-11-14T00:29:42.044Z,56.02
2022-11-14T00:30:35.634Z,56.05
2022-11-14T00:31:29.167Z,55.85
2022-11-14T00:32:22.708Z,56.35
2022-11-14T00:33:20.325Z,56.05
2022-11-14T00:33:59.919Z,56.55
2022-11-14T00:34:53.481Z,56.05
2022-11-14T00:35:46.978Z,56.05
2022-11-14T00:36:40.515Z,56.05
2022-11-14T00:37:34.048Z,56.05
2022-11-14T00:38:27.976Z,56.35
2022-11-14T00:39:21.222Z,55.85
2022-11-14T00:40:14.650Z,56.35
2022-11-14T00:41:08.191Z,56.15
2022-11-14T00:42:01.718Z,56.65
2022-11-14T00:42:55.276Z,56.35
2022-11-14T00:43:48.850Z,55.94
2022-11-14T00:44:52.638Z,56.15
2022-11-14T00:45:46.174Z,56.12
2022-11-14T00:46:39.721Z,56.32
2022-11-14T00:47:33.262Z,56.15
2022-11-14T00:48:27.111Z,55.85
2022-11-14T00:49:20.844Z,56.45
2022-11-14T00:50:14.378Z,56.74
2022-11-14T00:51:07.906Z,56.35
2022-11-14T00:52:01.444Z,56.35
2022-11-14T00:52:54.973Z,56.05
2022-11-14T00:53:49.503Z,55.94
2022-11-14T00:54:43.158Z,56.35
2022-11-14T00:55:36.583Z,56.45
2022-11-14T00:56:30.120Z,56.05
2022-11-14T00:57:23.654Z,55.85
2022-11-14T00:58:17.204Z,56.45
2022-11-14T00:59:10.745Z,56.15
2022-11-14T01:00:04.268Z,56.24
2022-11-14T01:00:47.992Z,56.24
2022-11-14T01:01:41.473Z,56.45
2022-11-14T01:02:35.006Z,56.15
2022-11-14T01:03:18.682Z,56.05
2022-11-14T01:04:12.216Z,55.85
2022-11-14T01:05:05.761Z,55.85
2022-11-14T01:05:59.304Z,55.94
2022-11-14T01:06:52.830Z,56.35
2022-11-14T01:07:46.363Z,55.94
2022-11-14T01:08:30.395Z,55.74
2022-11-14T01:09:13.763Z,55.94
2022-11-14T01:10:07.371Z,55.85
2022-11-14T01:11:00.775Z,56.15
2022-11-14T01:12:04.552Z,56.45
2022-11-14T01:12:48.211Z,55.85
2022-11-14T01:13:41.755Z,56.24
2022-11-14T01:14:35.291Z,56.15
2022-11-14T01:15:28.833Z,56.35
2022-11-14T01:16:22.379Z,55.94
2022-11-14T01:17:15.905Z,56.24
2022-11-14T01:18:09.436Z,56.45
2022-11-14T01:19:03.263Z,56.35
2022-11-14T01:19:56.789Z,56.05
2022-11-14T01:20:50.316Z,56.45
2022-11-14T01:21:43.853Z,56.05
2022-11-14T01:22:37.382Z,56.35
2022-11-14T01:23:30.914Z,55.94
2022-11-14T01:24:24.461Z,55.85
2022-11-14T01:25:18.105Z,55.94
2022-11-14T01:26:11.524Z,56.35
2022-11-14T01:27:05.062Z,55.94
2022-11-14T01:27:58.596Z,56.15
2022-11-14T01:28:52.136Z,56.35
2022-11-14T01:29:45.684Z,55.85
2022-11-14T01:30:49.472Z,56.45
2022-11-14T01:31:42.991Z,55.94
2022-11-14T01:32:36.536Z,56.45
2022-11-14T01:33:30.084Z,55.94
2022-11-14T01:34:23.615Z,56.35
2022-11-14T01:35:17.150Z,56.35
2022-11-14T01:36:10.681Z,55.85
2022-11-14T01:37:04.214Z,55.85
2022-11-14T01:37:57.760Z,56.35
2022-11-14T01:39:01.569Z,55.94
2022-11-14T01:39:55.125Z,56.05
2022-11-14T01:40:48.777Z,55.94
2022-11-14T01:41:42.221Z,55.94
2022-11-14T01:42:35.752Z,56.35
2022-11-14T01:43:29.278Z,56.65
2022-11-14T01:44:22.857Z,56.74
2022-11-14T01:45:16.392Z,56.35
2022-11-14T01:46:00.045Z,56.24
2022-11-14T01:46:53.617Z,55.85
2022-11-14T01:47:47.120Z,56.45
2022-11-14T01:48:40.658Z,55.94
2022-11-14T01:49:34.684Z,56.15
2022-11-14T01:50:28.221Z,56.15
2022-11-14T01:51:21.771Z,56.24
2022-11-14T01:52:15.313Z,56.05
2022-11-14T01:53:08.852Z,55.85
2022-11-14T01:54:02.395Z,56.15
2022-11-14T01:54:55.928Z,56.15
2022-11-14T01:55:49.465Z,56.55
2022-11-14T01:56:43.122Z,56.15
2022-11-14T01:57:36.564Z,56.24
2022-11-14T01:58:30.543Z,56.24
2022-11-14T01:59:23.679Z,56.15
2022-11-14T02:00:17.202Z,56.15
2022-11-14T02:01:10.853Z,56.27
2022-11-14T02:02:04.291Z,56.05
2022-11-14T02:02:57.829Z,56.24
2022-11-14T02:03:51.363Z,56.05
2022-11-14T02:04:44.902Z,56.24
2022-11-14T02:05:38.444Z,56.45
2022-11-14T02:06:31.988Z,56.24
2022-11-14T02:07:25.679Z,56.24
2022-11-14T02:08:19.074Z,56.24
2022-11-14T02:09:12.614Z,56.35
2022-11-14T02:10:06.145Z,56.74
2022-11-14T02:10:59.707Z,56.15
2022-11-14T02:11:53.335Z,56.35
2022-11-14T02:12:46.765Z,56.15
2022-11-14T02:13:40.295Z,56.35
2022-11-14T02:14:33.830Z,56.74
2022-11-14T02:15:27.365Z,56.24
2022-11-14T02:16:20.902Z,56.15
2022-11-14T02:17:28.917Z,56.24
2022-11-14T02:18:07.970Z,56.05
2022-11-14T02:19:01.502Z,56.24
2022-11-14T02:19:55.047Z,56.55
2022-11-14T02:20:48.586Z,55.94
2022-11-14T02:21:42.127Z,56.65
2022-11-14T02:22:35.660Z,56.74
2022-11-14T02:23:29.237Z,56.45
2022-11-14T02:24:22.755Z,56.35
2022-11-14T02:25:16.290Z,56.27
2022-11-14T02:26:09.816Z,56.15
2022-11-14T02:27:03.465Z,56.24
2022-11-14T02:27:56.891Z,56.65
2022-11-14T02:28:50.446Z,56.15
2022-11-14T02:29:43.985Z,56.24
2022-11-14T02:30:37.547Z,56.35
2022-11-14T02:31:21.211Z,56.35
2022-11-14T02:32:14.744Z,56.15
2022-11-14T02:33:10.956Z,56.24
2022-11-14T02:34:01.797Z,56.65
2022-11-14T02:34:55.334Z,56.15
2022-11-14T02:35:48.877Z,56.15
2022-11-14T02:36:42.412Z,56.27
2022-11-14T02:37:35.949Z,56.24
2022-11-14T02:38:29.848Z,56.35
2022-11-14T02:39:23.024Z,56.35
2022-11-14T02:40:16.559Z,56.27
2022-11-14T02:41:10.103Z,56.24
2022-11-14T02:42:03.643Z,56.35
2022-11-14T02:42:57.289Z,56.45
2022-11-14T02:43:50.709Z,56.24
2022-11-14T02:44:44.241Z,56.45
2022-11-14T02:45:37.777Z,56.35
2022-11-14T02:46:31.334Z,56.37
2022-11-14T02:47:24.865Z,56.24
2022-11-14T02:48:18.414Z,56.35
2022-11-14T02:49:11.946Z,56.24
2022-11-14T02:50:05.989Z,56.37
2022-11-14T02:50:59.519Z,56.35
2022-11-14T02:51:53.065Z,56.45
2022-11-14T02:52:46.599Z,56.35
2022-11-14T02:53:40.137Z,56.35
2022-11-14T02:54:33.685Z,56.35
2022-11-14T02:55:27.227Z,56.95
2022-11-14T02:56:20.755Z,56.37
2022-11-14T02:57:14.305Z,56.85
2022-11-14T02:58:07.954Z,56.35
2022-11-14T02:58:51.505Z,56.74
2022-11-14T02:59:45.042Z,56.65
2022-11-14T03:00:59.288Z,56.27
2022-11-14T03:01:32.190Z,56.37
2022-11-14T03:02:25.638Z,56.37
2022-11-14T03:03:19.178Z,56.74
2022-11-14T03:04:12.731Z,56.27
2022-11-14T03:05:06.256Z,56.17
2022-11-14T03:05:59.786Z,56.35
2022-11-14T03:06:53.345Z,56.15
2022-11-14T03:07:46.839Z,56.37
2022-11-14T03:08:40.372Z,56.37
2022-11-14T03:09:33.917Z,56.17
2022-11-14T03:10:27.460Z,56.35
2022-11-14T03:11:20.993Z,56.17
2022-11-14T03:12:14.528Z,56.37
2022-11-14T03:13:08.059Z,56.45
2022-11-14T03:13:51.850Z,56.15
2022-11-14T03:14:45.320Z,56.37
2022-11-14T03:15:38.868Z,56.27
2022-11-14T03:16:32.402Z,56.74
2022-11-14T03:17:25.942Z,57.07
2022-11-14T03:18:09.596Z,56.57
2022-11-14T03:19:03.138Z,56.57
2022-11-14T03:19:56.655Z,56.24
2022-11-14T03:20:50.192Z,56.17
2022-11-14T03:21:33.853Z,56.35
2022-11-14T03:22:27.388Z,56.48
2022-11-14T03:23:31.170Z,56.98
2022-11-14T03:24:14.830Z,56.87
2022-11-14T03:25:08.365Z,56.35
2022-11-14T03:26:01.930Z,56.48
2022-11-14T03:26:55.456Z,56.95
2022-11-14T03:27:39.117Z,56.77
2022-11-14T03:28:32.752Z,56.17
2022-11-14T03:29:26.295Z,56.87
2022-11-14T03:30:29.970Z,56.37
2022-11-14T03:31:23.524Z,56.55
2022-11-14T03:32:17.042Z,56.77
2022-11-14T03:33:11.074Z,56.98
2022-11-14T03:34:04.621Z,56.67
2022-11-14T03:34:58.154Z,56.48
2022-11-14T03:35:51.676Z,56.37
2022-11-14T03:36:45.719Z,57.07
2022-11-14T03:37:39.245Z,56.48
2022-11-14T03:38:32.931Z,56.37
2022-11-14T03:39:26.815Z,56.87
2022-11-14T03:40:10.492Z,56.48
2022-11-14T03:41:04.020Z,56.67
2022-11-14T03:41:57.545Z,56.87
2022-11-14T03:42:51.072Z,56.48
2022-11-14T03:43:54.869Z,56.37
2022-11-14T03:44:48.532Z,56.37
2022-11-14T03:45:41.945Z,56.37
2022-11-14T03:46:35.473Z,56.98
2022-11-14T03:47:29.018Z,56.24
2022-11-14T03:48:22.554Z,56.48
2022-11-14T03:49:26.831Z,56.57
2022-11-14T03:50:20.361Z,56.87
2022-11-14T03:51:13.900Z,56.57
2022-11-14T03:52:07.431Z,56.98
2022-11-14T03:53:00.953Z,56.57
2022-11-14T03:53:54.501Z,56.57
2022-11-14T03:54:48.037Z,56.98
2022-11-14T03:55:41.565Z,56.48
2022-11-14T03:56:35.091Z,56.37
2022-11-14T03:57:29.117Z,56.37
2022-11-14T03:58:22.648Z,56.27
2022-11-14T03:59:16.183Z,56.17
2022-11-14T04:00:09.831Z,56.48
2022-11-14T04:01:03.431Z,56.37
2022-11-14T04:01:56.881Z,56.27
2022-11-14T04:02:50.417Z,56.27
2022-11-14T04:03:43.949Z,56.87
2022-11-14T04:04:37.495Z,56.17
2022-11-14T04:05:31.031Z,56.27
2022-11-14T04:06:24.576Z,56.17
2022-11-14T04:07:18.219Z,56.37
2022-11-14T04:08:21.895Z,56.37
2022-11-14T04:09:15.417Z,56.87
2022-11-14T04:10:08.949Z,56.67
2022-11-14T04:11:02.478Z,56.77
2022-11-14T04:11:56.020Z,56.48
2022-11-14T04:12:49.571Z,56.77
2022-11-14T04:13:43.101Z,56.57
2022-11-14T04:14:36.636Z,56.27
2022-11-14T04:15:30.273Z,56.35
2022-11-14T04:16:23.700Z,56.87
2022-11-14T04:17:17.226Z,56.17
2022-11-14T04:18:10.775Z,56.48
2022-11-14T04:19:04.314Z,56.17
2022-11-14T04:19:57.843Z,56.37
2022-11-14T04:20:51.376Z,56.48
2022-11-14T04:21:35.048Z,57.07
2022-11-14T04:22:28.579Z,56.37
2022-11-14T04:23:22.114Z,56.27
2022-11-14T04:24:15.630Z,56.17
2022-11-14T04:25:09.148Z,56.27
2022-11-14T04:26:02.686Z,56.67
2022-11-14T04:26:46.389Z,56.37
2022-11-14T04:27:39.920Z,56.57
2022-11-14T04:28:33.601Z,56.37
2022-11-14T04:29:27.013Z,56.48
2022-11-14T04:30:20.559Z,56.48
2022-11-14T04:31:14.194Z,56.27
2022-11-14T04:32:08.123Z,56.37
2022-11-14T04:33:01.663Z,55.87
2022-11-14T04:33:55.195Z,56.27
2022-11-14T04:34:48.725Z,56.27
2022-11-14T04:35:42.270Z,55.98
2022-11-14T04:36:35.787Z,56.37
2022-11-14T04:37:29.328Z,55.98
2022-11-14T04:38:22.862Z,55.98
2022-11-14T04:39:06.516Z,55.98
2022-11-14T04:40:00.055Z,56.37
2022-11-14T04:40:53.578Z,56.27
2022-11-14T04:41:47.126Z,56.37
2022-11-14T04:42:40.667Z,57.15
2022-11-14T04:43:34.192Z,56.07
2022-11-14T04:44:27.760Z,55.98
2022-11-14T04:45:21.341Z,56.07
2022-11-14T04:46:14.820Z,55.85
2022-11-14T04:47:08.475Z,56.27
2022-11-14T04:48:01.905Z,56.35
2022-11-14T04:48:55.443Z,55.94
2022-11-14T04:49:59.245Z,56.15
2022-11-14T04:50:52.819Z,55.94
2022-11-14T04:51:36.491Z,56.15
2022-11-14T04:52:30.016Z,56.05
2022-11-14T04:53:23.546Z,56.05
2022-11-14T04:54:17.083Z,56.24
2022-11-14T04:55:10.620Z,55.55
2022-11-14T04:56:04.155Z,55.35
2022-11-14T04:56:57.718Z,55.74
2022-11-14T04:57:51.198Z,55.12
2022-11-14T04:58:44.745Z,55.82
2022-11-14T04:59:38.266Z,54.92
2022-11-14T05:00:21.933Z,55.52
2022-11-14T05:01:15.507Z,55.32
2022-11-14T05:02:09.001Z,55.02
2022-11-14T05:03:02.553Z,55.12
2022-11-14T05:03:56.060Z,55.02
2022-11-14T05:04:49.590Z,55.02
2022-11-14T05:05:43.122Z,55.52
2022-11-14T05:06:36.683Z,55.22
2022-11-14T05:07:30.294Z,54.92
2022-11-14T05:08:23.741Z,55.22
2022-11-14T05:09:17.280Z,55.02
2022-11-14T05:10:10.834Z,54.92
2022-11-14T05:11:04.359Z,55.05
2022-11-14T05:11:57.889Z,55.22
2022-11-14T05:12:51.417Z,55.22
2022-11-14T05:13:44.944Z,55.22
2022-11-14T05:14:38.482Z,55.12
2022-11-14T05:15:32.068Z,55.62
2022-11-14T05:16:25.603Z,55.42
2022-11-14T05:17:19.130Z,55.42
2022-11-14T05:18:12.685Z,55.42
2022-11-14T05:19:06.783Z,55.62
2022-11-14T05:20:00.318Z,55.22
2022-11-14T05:20:53.872Z,55.12
2022-11-14T05:21:47.397Z,55.12
2022-11-14T05:22:40.932Z,54.92
2022-11-14T05:23:34.464Z,55.52
2022-11-14T05:24:27.995Z,55.12
2022-11-14T05:25:21.526Z,54.92
2022-11-14T05:26:15.071Z,55.22
2022-11-14T05:27:08.611Z,55.32
2022-11-14T05:28:02.139Z,55.40
2022-11-14T05:28:55.672Z,55.69
2022-11-14T05:29:49.217Z,55.19
2022-11-14T05:30:42.747Z,55.59
2022-11-14T05:31:37.310Z,55.40
2022-11-14T05:32:30.852Z,55.49
2022-11-14T05:33:24.412Z,55.40
2022-11-14T05:34:17.908Z,55.49
2022-11-14T05:35:11.439Z,55.09
2022-11-14T05:36:04.960Z,55.59
2022-11-14T05:36:58.493Z,55.89
2022-11-14T05:37:56.048Z,55.99
2022-11-14T05:38:45.568Z,56.20
2022-11-14T05:39:39.109Z,56.32
2022-11-14T05:40:32.633Z,56.42
2022-11-14T05:41:16.300Z,55.32
2022-11-14T05:42:09.820Z,56.22
2022-11-14T05:43:03.350Z,56.02
2022-11-14T05:43:56.884Z,55.92
2022-11-14T05:44:40.568Z,56.12
2022-11-14T05:45:34.103Z,56.22
2022-11-14T05:46:27.730Z,56.52
2022-11-14T05:47:11.390Z,56.22
2022-11-14T05:48:04.926Z,56.22
2022-11-14T05:48:58.477Z,56.22
2022-11-14T05:49:42.146Z,56.22
2022-11-14T05:50:35.673Z,55.72
2022-11-14T05:51:29.206Z,55.62
2022-11-14T05:52:22.752Z,55.72
2022-11-14T05:53:16.278Z,55.72
2022-11-14T05:54:09.814Z,56.20
2022-11-14T05:55:03.358Z,56.20
2022-11-14T05:55:56.920Z,56.22
2022-11-14T05:56:50.511Z,56.70
2022-11-14T05:57:44.135Z,55.99
2022-11-14T05:58:37.662Z,56.09
2022-11-14T05:59:31.195Z,56.49
2022-11-14T06:00:14.862Z,56.09
2022-11-14T06:01:08.392Z,55.89
2022-11-14T06:02:01.990Z,56.70
2022-11-14T06:02:55.464Z,56.49
2022-11-14T06:03:59.252Z,56.20
2022-11-14T06:04:42.946Z,56.29
2022-11-14T06:05:36.510Z,56.59
2022-11-14T06:06:40.302Z,56.39
2022-11-14T06:07:33.951Z,56.49
2022-11-14T06:08:27.844Z,56.29
2022-11-14T06:09:20.965Z,56.49
2022-11-14T06:10:14.485Z,56.29
2022-11-14T06:11:08.026Z,56.70
2022-11-14T06:12:01.541Z,56.22
2022-11-14T06:12:55.076Z,56.29
2022-11-14T06:13:48.669Z,55.99
2022-11-14T06:14:42.196Z,56.39
2022-11-14T06:15:35.761Z,55.79
2022-11-14T06:16:29.272Z,56.39
2022-11-14T06:17:22.813Z,55.79
2022-11-14T06:18:16.350Z,56.02
2022-11-14T06:19:09.880Z,56.09
2022-11-14T06:20:03.443Z,56.29
2022-11-14T06:20:47.124Z,56.20
2022-11-14T06:21:40.653Z,55.02
2022-11-14T06:22:34.179Z,56.02
2022-11-14T06:23:27.710Z,55.72
2022-11-14T06:24:21.247Z,55.62
2022-11-14T06:25:14.792Z,56.72
2022-11-14T06:26:08.315Z,56.62
2022-11-14T06:27:01.838Z,55.72
2022-11-14T06:27:55.374Z,56.32
2022-11-14T06:28:48.932Z,56.12
2022-11-14T06:29:42.465Z,55.82
2022-11-14T06:30:36.008Z,55.72
2022-11-14T06:31:30.141Z,56.22
2022-11-14T06:32:23.670Z,56.22
2022-11-14T06:33:17.210Z,55.72
2022-11-14T06:34:10.731Z,56.52
2022-11-14T06:34:54.423Z,55.92
2022-11-14T06:35:47.971Z,56.02
2022-11-14T06:36:41.489Z,55.82
2022-11-14T06:37:35.018Z,55.62
2022-11-14T06:38:29.083Z,55.82
2022-11-14T06:39:12.248Z,55.92
2022-11-14T06:40:05.783Z,55.82
2022-11-14T06:40:59.332Z,55.72
2022-11-14T06:41:52.859Z,55.09
2022-11-14T06:42:46.378Z,55.12
2022-11-14T06:43:39.925Z,55.42
2022-11-14T06:44:33.462Z,55.32
2022-11-14T06:45:26.992Z,55.40
2022-11-14T06:46:20.521Z,55.19
2022-11-14T06:47:14.067Z,55.62
2022-11-14T06:48:18.439Z,55.59
2022-11-14T06:49:11.988Z,54.72
2022-11-14T06:50:05.524Z,55.09
2022-11-14T06:50:59.084Z,55.42
2022-11-14T06:51:52.589Z,55.72
2022-11-14T06:52:46.109Z,55.09
2022-11-14T06:53:39.629Z,54.92
2022-11-14T06:54:33.154Z,55.19
2022-11-14T06:55:20.926Z,55.32
2022-11-14T06:56:10.358Z,54.90
2022-11-14T06:57:03.888Z,54.90
2022-11-14T06:57:57.415Z,54.82
2022-11-14T06:58:50.931Z,54.82
2022-11-14T06:59:44.519Z,55.19
2022-11-14T07:00:38.066Z,55.29
2022-11-14T07:01:31.638Z,55.49
2022-11-14T07:02:25.194Z,55.79
2022-11-14T07:03:18.788Z,55.69
2022-11-14T07:04:12.248Z,55.40
2022-11-14T07:05:05.774Z,55.40
2022-11-14T07:05:59.310Z,55.19
2022-11-14T07:06:52.928Z,54.60
2022-11-14T07:07:46.378Z,55.19
2022-11-14T07:08:39.902Z,54.99
2022-11-14T07:09:33.428Z,54.79
2022-11-14T07:10:26.964Z,54.99
2022-11-14T07:11:20.487Z,55.40
2022-11-14T07:12:14.020Z,55.29
2022-11-14T07:13:07.551Z,55.59
2022-11-14T07:14:01.099Z,54.99
2022-11-14T07:14:54.624Z,54.90
2022-11-14T07:15:48.148Z,54.60
2022-11-14T07:16:41.683Z,55.40
2022-11-14T07:17:35.227Z,54.99
2022-11-14T07:18:18.881Z,54.69
2022-11-14T07:19:12.412Z,55.79
2022-11-14T07:20:05.944Z,55.09
2022-11-14T07:20:59.484Z,54.60
2022-11-14T07:21:52.994Z,54.99
2022-11-14T07:22:46.538Z,54.99
2022-11-14T07:23:34.480Z,55.59
2022-11-14T07:24:30.315Z,54.90
2022-11-14T07:25:23.848Z,55.29
2022-11-14T07:26:17.367Z,55.09
2022-11-14T07:27:10.889Z,55.29
2022-11-14T07:28:04.422Z,55.69
2022-11-14T07:29:02.563Z,54.79
2022-11-14T07:29:51.487Z,54.86
2022-11-14T07:30:55.276Z,55.09
2022-11-14T07:31:48.814Z,55.17
2022-11-14T07:32:42.331Z,55.59
2022-11-14T07:33:35.892Z,55.27
2022-11-14T07:34:29.423Z,55.09
2022-11-14T07:35:22.951Z,55.27
2022-11-14T07:36:16.490Z,55.47
2022-11-14T07:37:10.025Z,55.07
2022-11-14T07:37:53.698Z,55.57
2022-11-14T07:38:47.216Z,55.17
2022-11-14T07:39:40.737Z,55.07
2022-11-14T07:40:34.268Z,55.07
2022-11-14T07:41:27.806Z,55.27
2022-11-14T07:42:21.346Z,55.49
2022-11-14T07:43:14.873Z,55.59
2022-11-14T07:44:08.400Z,55.66
2022-11-14T07:45:01.930Z,55.47
2022-11-14T07:45:45.579Z,55.69
2022-11-14T07:46:39.169Z,55.19
2022-11-14T07:47:32.724Z,55.59
2022-11-14T07:48:26.359Z,55.19
2022-11-14T07:49:19.778Z,55.17
2022-11-14T07:50:17.700Z,54.90
2022-11-14T07:51:06.825Z,56.07
2022-11-14T07:52:00.356Z,55.19
2022-11-14T07:52:53.941Z,55.77
2022-11-14T07:53:47.498Z,55.66
2022-11-14T07:54:41.005Z,55.77
2022-11-14T07:55:34.526Z,55.47
2022-11-14T07:56:28.055Z,55.29
2022-11-14T07:57:21.619Z,51.32
2022-11-14T07:58:15.159Z,55.82
2022-11-14T07:59:08.726Z,56.09
2022-11-14T08:00:02.717Z,55.79
2022-11-14T08:00:46.645Z,55.79
2022-11-14T08:01:40.107Z,55.57
2022-11-14T08:02:33.636Z,54.97
2022-11-14T08:03:27.167Z,55.27
2022-11-14T08:04:20.699Z,55.29
2022-11-14T08:05:14.351Z,55.27
2022-11-14T08:06:07.888Z,55.09
2022-11-14T08:07:01.528Z,55.97
2022-11-14T08:07:55.016Z,55.17
2022-11-14T08:08:49.027Z,55.47
2022-11-14T08:09:42.054Z,55.36
2022-11-14T08:10:35.561Z,55.27
2022-11-14T08:11:35.246Z,55.66
2022-11-14T08:12:22.638Z,55.66
2022-11-14T08:13:33.075Z,55.77
2022-11-14T08:14:09.705Z,55.94
2022-11-14T08:15:03.222Z,56.24
2022-11-14T08:15:56.769Z,55.94
2022-11-14T08:16:50.296Z,55.77
2022-11-14T08:17:43.829Z,55.24
2022-11-14T08:18:37.367Z,55.34
2022-11-14T08:19:30.895Z,55.44
2022-11-14T08:20:24.420Z,55.84
2022-11-14T08:21:08.078Z,55.14
2022-11-14T08:22:01.611Z,55.44
2022-11-14T08:22:45.265Z,55.34
2022-11-14T08:23:38.796Z,54.94
2022-11-14T08:24:42.597Z,55.64
2022-11-14T08:25:36.158Z,55.64
2022-11-14T08:26:34.113Z,55.04
2022-11-14T08:27:23.360Z,55.02
2022-11-14T08:28:16.878Z,55.54
2022-11-14T08:29:10.399Z,54.82
2022-11-14T08:30:03.923Z,55.21
2022-11-14T08:30:57.440Z,54.91
2022-11-14T08:31:54.488Z,54.91
2022-11-14T08:32:44.563Z,54.91
2022-11-14T08:33:38.608Z,54.91
2022-11-14T08:34:32.132Z,54.82
2022-11-14T08:35:25.676Z,54.91
2022-11-14T08:36:19.199Z,54.71
2022-11-14T08:37:12.735Z,54.61
2022-11-14T08:38:06.261Z,54.61
2022-11-14T08:39:02.133Z,55.02
2022-11-14T08:39:53.324Z,55.02
2022-11-14T08:40:57.130Z,55.02
2022-11-14T08:41:40.766Z,54.71
2022-11-14T08:42:34.305Z,54.71
2022-11-14T08:43:27.851Z,54.91
2022-11-14T08:44:11.500Z,55.02
2022-11-14T08:45:05.020Z,55.11
2022-11-14T08:46:01.667Z,54.91
2022-11-14T08:46:52.093Z,55.02
2022-11-14T08:47:45.650Z,55.02
2022-11-14T08:48:39.183Z,54.82
2022-11-14T08:49:32.715Z,54.61
2022-11-14T08:50:26.253Z,55.11
2022-11-14T08:51:19.786Z,54.82
2022-11-14T08:52:16.713Z,54.82
2022-11-14T08:53:06.854Z,54.79
2022-11-14T08:53:50.540Z,54.49
2022-11-14T08:54:44.071Z,54.89
2022-11-14T08:55:37.623Z,54.79
2022-11-14T08:56:31.177Z,54.79
2022-11-14T08:57:24.694Z,55.09
2022-11-14T08:58:18.214Z,54.71
2022-11-14T08:59:11.746Z,54.91
2022-11-14T09:00:05.279Z,54.29
2022-11-14T09:00:58.811Z,54.69
2022-11-14T09:01:52.337Z,54.89
2022-11-14T09:02:35.994Z,54.59
2022-11-14T09:03:29.616Z,54.89
2022-11-14T09:04:23.098Z,54.79
2022-11-14T09:05:16.618Z,54.79
2022-11-14T09:06:10.144Z,54.59
2022-11-14T09:07:03.730Z,54.69
2022-11-14T09:07:57.230Z,54.69
2022-11-14T09:08:50.748Z,54.69
2022-11-14T09:09:45.289Z,54.79
2022-11-14T09:10:28.777Z,54.69
2022-11-14T09:11:22.341Z,54.79
2022-11-14T09:12:15.935Z,55.49
2022-11-14T09:13:09.499Z,54.99
2022-11-14T09:14:03.032Z,55.19
2022-11-14T09:14:56.556Z,55.19
2022-11-14T09:15:50.147Z,54.69
2022-11-14T09:16:43.698Z,55.39
2022-11-14T09:17:37.250Z,55.49
2022-11-14T09:18:32.201Z,54.89
2022-11-14T09:19:25.333Z,55.62
2022-11-14T09:20:18.851Z,54.99
2022-11-14T09:21:12.387Z,54.99
2022-11-14T09:21:56.043Z,54.79
2022-11-14T09:22:49.584Z,54.99
2022-11-14T09:23:43.145Z,54.82
2022-11-14T09:24:36.704Z,55.02
2022-11-14T09:25:30.238Z,55.02
2022-11-14T09:26:23.809Z,55.02
2022-11-14T09:27:17.522Z,52.42
2022-11-14T09:28:11.047Z,52.69
2022-11-14T09:29:04.578Z,48.02
2022-11-14T09:29:58.259Z,47.22
2022-11-14T09:30:52.278Z,46.69
2022-11-14T09:31:45.808Z,49.95
2022-11-14T09:32:39.572Z,43.43
2022-11-14T09:33:33.158Z,45.90
2022-11-14T09:34:27.150Z,46.11
2022-11-14T09:35:30.930Z,48.35
2022-11-14T09:36:24.463Z,43.49
2022-11-14T09:37:18.482Z,45.62
2022-11-14T09:38:12.003Z,47.88
2022-11-14T09:39:05.532Z,47.08
2022-11-14T09:39:59.076Z,47.92
2022-11-14T09:40:52.611Z,47.52
2022-11-14T09:41:46.137Z,50.42
2022-11-14T09:42:39.686Z,49.72
2022-11-14T09:43:33.280Z,50.59
2022-11-14T09:44:26.725Z,51.29
2022-11-14T09:45:20.268Z,51.27
2022-11-14T09:46:13.790Z,51.27
2022-11-14T09:47:07.315Z,51.07
2022-11-14T09:48:00.840Z,51.34
2022-11-14T09:48:54.365Z,51.15
2022-11-14T09:49:47.901Z,52.14
2022-11-14T09:50:41.441Z,51.75
2022-11-14T09:51:34.959Z,52.44
2022-11-14T09:52:18.656Z,51.72
2022-11-14T09:53:12.178Z,51.32
2022-11-14T09:54:06.276Z,52.02
2022-11-14T09:54:59.832Z,52.12
2022-11-14T09:55:43.492Z,52.12
2022-11-14T09:56:37.054Z,52.12
2022-11-14T09:57:31.098Z,52.42
2022-11-14T09:58:24.646Z,51.92
2022-11-14T09:59:18.159Z,52.32
2022-11-14T10:00:11.680Z,52.12
2022-11-14T10:01:09.314Z,51.72
2022-11-14T10:01:59.003Z,52.12
2022-11-14T10:02:52.278Z,51.92
2022-11-14T10:03:45.792Z,51.92
2022-11-14T10:04:39.314Z,52.12
2022-11-14T10:05:32.840Z,52.42
2022-11-14T10:06:26.377Z,52.32
2022-11-14T10:07:19.966Z,52.72
2022-11-14T10:08:13.438Z,51.92
2022-11-14T10:09:06.961Z,52.82
2022-11-14T10:10:00.487Z,52.22
2022-11-14T10:10:44.186Z,52.42
2022-11-14T10:11:37.726Z,52.09
2022-11-14T10:12:31.246Z,52.62
2022-11-14T10:13:24.772Z,52.59
2022-11-14T10:14:18.339Z,52.99
2022-11-14T10:15:11.855Z,52.69
2022-11-14T10:16:05.379Z,52.49
2022-11-14T10:16:58.925Z,52.49
2022-11-14T10:17:52.459Z,52.00
2022-11-14T10:18:46.008Z,52.49
2022-11-14T10:19:42.695Z,52.49
2022-11-14T10:20:43.448Z,52.69
2022-11-14T10:21:36.981Z,52.39
2022-11-14T10:22:30.507Z,52.69
2022-11-14T10:23:24.028Z,52.49
2022-11-14T10:24:17.552Z,52.29
2022-11-14T10:25:11.073Z,52.29
2022-11-14T10:26:04.609Z,53.09
2022-11-14T10:26:58.134Z,52.59
2022-11-14T10:27:55.994Z,52.79
2022-11-14T10:28:45.176Z,52.59
2022-11-14T10:29:38.730Z,52.79
2022-11-14T10:30:32.261Z,52.49
2022-11-14T10:31:25.779Z,52.49
2022-11-14T10:32:19.316Z,52.49
2022-11-14T10:33:02.965Z,52.49
2022-11-14T10:33:56.732Z,52.59
2022-11-14T10:34:40.393Z,53.49
2022-11-14T10:35:35.322Z,52.49
2022-11-14T10:36:27.454Z,52.59
2022-11-14T10:37:20.983Z,52.49
2022-11-14T10:38:14.511Z,52.49
2022-11-14T10:39:08.049Z,52.79
2022-11-14T10:40:01.768Z,52.47
2022-11-14T10:40:45.444Z,52.69
2022-11-14T10:42:08.447Z,52.47
2022-11-14T10:42:32.776Z,52.57
2022-11-14T10:43:26.440Z,52.59
2022-11-14T10:44:20.033Z,52.57
2022-11-14T10:45:13.668Z,52.97
2022-11-14T10:46:07.280Z,52.47
2022-11-14T10:47:00.908Z,53.36
2022-11-14T10:47:54.517Z,53.27
2022-11-14T10:48:48.146Z,53.27
2022-11-14T10:49:41.774Z,53.06
2022-11-14T10:50:35.385Z,52.87
2022-11-14T10:51:29.018Z,53.19
2022-11-14T10:52:22.649Z,53.19
2022-11-14T10:53:16.260Z,53.36
2022-11-14T10:54:09.871Z,53.49
2022-11-14T10:55:03.510Z,53.47
2022-11-14T10:56:04.320Z,53.39
2022-11-14T10:56:50.763Z,53.77
2022-11-14T10:57:44.370Z,53.47
2022-11-14T10:58:47.964Z,53.56
2022-11-14T10:59:31.614Z,53.36
2022-11-14T11:00:25.265Z,53.86
2022-11-14T11:01:18.892Z,53.49
2022-11-14T11:02:12.486Z,53.39
2022-11-14T11:03:06.106Z,53.06
2022-11-14T11:03:59.834Z,53.17
2022-11-14T11:04:53.361Z,53.49
2022-11-14T11:05:46.979Z,53.77
2022-11-14T11:06:40.627Z,53.96
2022-11-14T11:07:34.343Z,53.47
2022-11-14T11:08:42.883Z,53.77
2022-11-14T11:09:21.531Z,53.47
2022-11-14T11:10:15.091Z,53.47
2022-11-14T11:11:08.728Z,53.17
2022-11-14T11:11:52.411Z,52.76
2022-11-14T11:12:46.286Z,53.06
2022-11-14T11:13:39.659Z,52.57
2022-11-14T11:14:33.283Z,52.57
2022-11-14T11:15:26.921Z,52.37
2022-11-14T11:16:20.536Z,52.44
2022-11-14T11:17:14.149Z,52.34
2022-11-14T11:18:07.776Z,52.44
2022-11-14T11:19:01.394Z,52.55
2022-11-14T11:19:55.017Z,52.44
2022-11-14T11:20:48.661Z,52.74
2022-11-14T11:21:42.324Z,52.44
2022-11-14T11:22:35.896Z,52.44
2022-11-14T11:23:29.520Z,52.55
2022-11-14T11:24:13.201Z,52.44